createdAt,value
2016-11-21T00:00:28.215Z,0
2016-11-21T00:01:37.933Z,0
2016-11-21T00:02:47.950Z,0
2016-11-21T00:03:58.288Z,0
2016-11-21T00:05:08.315Z,0
2016-11-21T00:06:18.359Z,0
2016-11-21T00:07:28.376Z,0
2016-11-21T00:08:38.085Z,0
2016-11-21T00:09:48.521Z,0
2016-11-21T00:10:58.849Z,0
2016-11-21T00:12:09.166Z,0
2016-11-21T00:13:18.603Z,0
2016-11-21T00:14:29.041Z,0
2016-11-21T00:15:38.741Z,0
2016-11-21T00:16:49.076Z,0
2016-11-21T00:17:59.132Z,0
2016-11-21T00:19:09.139Z,0
2016-11-21T00:20:19.488Z,0
2016-11-21T00:21:29.908Z,0
2016-11-21T00:22:40.245Z,0
2016-11-21T00:23:50.356Z,0
2016-11-21T00:25:00.458Z,0
2016-11-21T00:26:10.776Z,0
2016-11-21T00:27:21.103Z,0
2016-11-21T00:28:31.253Z,0
2016-11-21T00:29:41.287Z,0
2016-11-21T00:30:51.370Z,0
2016-11-21T00:32:01.808Z,0
2016-11-21T00:33:11.933Z,0
2016-11-21T00:34:22.308Z,0
2016-11-21T00:35:32.638Z,0
2016-11-21T00:36:42.650Z,0
2016-11-21T00:37:52.969Z,0
2016-11-21T00:39:02.985Z,0
2016-11-21T00:40:12.748Z,0
2016-11-21T00:41:23.075Z,0
2016-11-21T00:42:33.087Z,0
2016-11-21T00:43:43.178Z,0
2016-11-21T00:44:53.521Z,0
2016-11-21T00:46:03.558Z,0
2016-11-21T00:47:13.574Z,0
2016-11-21T00:48:23.588Z,0
2016-11-21T00:49:33.651Z,0
2016-11-21T00:50:44.019Z,0
2016-11-21T00:51:54.027Z,0
2016-11-21T00:53:04.358Z,0
2016-11-21T00:54:14.721Z,0
2016-11-21T00:55:24.730Z,0
2016-11-21T00:56:35.073Z,0
2016-11-21T00:57:45.392Z,0
2016-11-21T00:58:55.487Z,0
2016-11-21T01:00:05.576Z,0
2016-11-21T01:01:15.365Z,0
2016-11-21T01:02:25.082Z,0
2016-11-21T01:03:35.409Z,0
2016-11-21T01:04:45.419Z,0
2016-11-21T01:05:55.488Z,0
2016-11-21T01:07:05.548Z,0
2016-11-21T01:08:15.279Z,0
2016-11-21T01:09:25.284Z,0
2016-11-21T01:10:35.623Z,0
2016-11-21T01:11:46.047Z,0
2016-11-21T01:12:56.081Z,0
2016-11-21T01:14:06.084Z,0
2016-11-21T01:15:16.090Z,0
2016-11-21T01:16:26.088Z,0
2016-11-21T01:17:36.418Z,0
2016-11-21T01:18:46.777Z,0
2016-11-21T01:19:56.810Z,0
2016-11-21T01:21:06.975Z,0
2016-11-21T01:22:17.521Z,0
2016-11-21T01:23:27.555Z,0
2016-11-21T01:24:37.878Z,0
2016-11-21T01:25:47.878Z,0
2016-11-21T01:26:57.940Z,0
2016-11-21T01:28:08.267Z,0
2016-11-21T01:29:17.670Z,0
2016-11-21T01:30:28.049Z,0
2016-11-21T01:31:37.769Z,0
2016-11-21T01:32:47.910Z,0
2016-11-21T01:33:58.225Z,0
2016-11-21T01:35:07.916Z,0
2016-11-21T01:36:18.278Z,0
2016-11-21T01:37:28.300Z,0
2016-11-21T01:38:38.010Z,0
2016-11-21T01:39:47.750Z,0
2016-11-21T01:40:58.129Z,0
2016-11-21T01:42:08.259Z,0
2016-11-21T01:43:17.989Z,0
2016-11-21T01:44:27.381Z,0
2016-11-21T01:45:37.081Z,0
2016-11-21T01:46:47.435Z,0
2016-11-21T01:47:57.869Z,0
2016-11-21T01:49:08.180Z,0
2016-11-21T01:50:17.911Z,0
2016-11-21T01:51:28.234Z,0
2016-11-21T01:52:38.543Z,0
2016-11-21T01:53:48.271Z,0
2016-11-21T01:54:58.432Z,0
2016-11-21T01:56:08.448Z,0
2016-11-21T01:57:18.158Z,0
2016-11-21T01:58:28.170Z,0
2016-11-21T01:59:38.310Z,0
2016-11-21T02:00:48.656Z,0
2016-11-21T02:01:58.376Z,0
2016-11-21T02:03:08.123Z,0
2016-11-21T02:04:18.529Z,0
2016-11-21T02:05:28.226Z,0
2016-11-21T02:06:38.587Z,0
2016-11-21T02:07:48.910Z,0
2016-11-21T02:08:58.338Z,0
2016-11-21T02:10:08.731Z,0
2016-11-21T02:11:19.049Z,0
2016-11-21T02:12:29.371Z,0
2016-11-21T02:13:39.501Z,0
2016-11-21T02:14:49.579Z,0
2016-11-21T02:15:59.579Z,0
2016-11-21T02:17:09.350Z,0
2016-11-21T02:18:19.669Z,0
2016-11-21T02:19:29.371Z,0
2016-11-21T02:20:39.406Z,0
2016-11-21T02:21:49.491Z,0
2016-11-21T02:22:59.512Z,0
2016-11-21T02:24:09.531Z,0
2016-11-21T02:25:19.554Z,0
2016-11-21T02:26:29.867Z,0
2016-11-21T02:27:39.996Z,0
2016-11-21T02:28:50.016Z,0
2016-11-21T02:30:00.340Z,0
2016-11-21T02:31:10.370Z,0
2016-11-21T02:32:20.397Z,0
2016-11-21T02:33:30.112Z,0
2016-11-21T02:34:40.447Z,0
2016-11-21T02:35:50.739Z,0
2016-11-21T02:37:01.067Z,0
2016-11-21T02:38:10.781Z,0
2016-11-21T02:39:20.488Z,0
2016-11-21T02:40:30.653Z,0
2016-11-21T02:41:40.711Z,0
2016-11-21T02:42:50.719Z,0
2016-11-21T02:44:00.829Z,0
2016-11-21T02:45:10.534Z,0
2016-11-21T02:46:19.932Z,0
2016-11-21T02:47:30.340Z,0
2016-11-21T02:48:40.352Z,0
2016-11-21T02:49:50.680Z,0
2016-11-21T02:51:00.360Z,0
2016-11-21T02:52:10.140Z,0
2016-11-21T02:53:20.241Z,0
2016-11-21T02:54:29.731Z,0
2016-11-21T02:55:39.749Z,0
2016-11-21T02:56:49.461Z,0
2016-11-21T02:57:59.482Z,0
2016-11-21T02:59:09.510Z,0
2016-11-21T03:00:19.568Z,0
2016-11-21T03:01:29.742Z,0
2016-11-21T03:02:40.050Z,0
2016-11-21T03:03:50.069Z,0
2016-11-21T03:04:59.790Z,0
2016-11-21T03:06:09.810Z,0
2016-11-21T03:07:20.241Z,0
2016-11-21T03:08:30.263Z,0
2016-11-21T03:09:40.359Z,0
2016-11-21T03:10:50.364Z,0
2016-11-21T03:12:00.377Z,0
2016-11-21T03:13:10.693Z,0
2016-11-21T03:14:20.713Z,0
2016-11-21T03:15:30.799Z,0
2016-11-21T03:16:41.111Z,0
2016-11-21T03:17:51.111Z,0
2016-11-21T03:19:01.119Z,0
2016-11-21T03:20:11.450Z,0
2016-11-21T03:21:21.132Z,0
2016-11-21T03:22:31.501Z,0
2016-11-21T03:23:41.520Z,0
2016-11-21T03:24:51.629Z,0
2016-11-21T03:26:01.970Z,0
2016-11-21T03:27:11.986Z,0
2016-11-21T03:28:21.679Z,0
2016-11-21T03:29:31.677Z,0
2016-11-21T03:30:41.757Z,0
2016-11-21T03:31:52.080Z,0
2016-11-21T03:33:02.421Z,0
2016-11-21T03:34:11.825Z,0
2016-11-21T03:35:21.557Z,0
2016-11-21T03:36:31.926Z,0
2016-11-21T03:37:41.019Z,0
2016-11-21T03:38:51.003Z,0
2016-11-21T03:40:00.694Z,0
2016-11-21T03:41:10.431Z,0
2016-11-21T03:42:20.542Z,0
2016-11-21T03:43:30.571Z,0
2016-11-21T03:44:40.327Z,0
2016-11-21T03:45:50.110Z,0
2016-11-21T03:47:00.502Z,0
2016-11-21T03:48:10.517Z,0
2016-11-21T03:49:20.949Z,0
2016-11-21T03:50:30.660Z,0
2016-11-21T03:51:40.058Z,0
2016-11-21T03:52:49.771Z,0
2016-11-21T03:53:59.491Z,0
2016-11-21T03:55:09.811Z,0
2016-11-21T03:56:19.849Z,0
2016-11-21T03:57:29.856Z,0
2016-11-21T03:58:39.239Z,0
2016-11-21T03:59:49.556Z,0
2016-11-21T04:00:59.858Z,0
2016-11-21T04:02:10.620Z,0
2016-11-21T04:03:20.320Z,0
2016-11-21T04:04:30.372Z,0
2016-11-21T04:05:40.119Z,0
2016-11-21T04:06:50.690Z,0
2016-11-21T04:08:00.651Z,0
2016-11-21T04:09:10.759Z,0
2016-11-21T04:10:20.818Z,0
2016-11-21T04:11:31.486Z,0
2016-11-21T04:12:41.920Z,0
2016-11-21T04:13:52.249Z,0
2016-11-21T04:15:02.579Z,0
2016-11-21T04:16:12.592Z,0
2016-11-21T04:17:23.369Z,0
2016-11-21T04:18:33.375Z,0
2016-11-21T04:19:43.388Z,0
2016-11-21T04:20:53.197Z,0
2016-11-21T04:22:03.234Z,0
2016-11-21T04:23:12.694Z,0
2016-11-21T04:24:23.161Z,0
2016-11-21T04:25:32.558Z,0
2016-11-21T04:26:42.866Z,0
2016-11-21T04:27:52.610Z,0
2016-11-21T04:29:02.940Z,0
2016-11-21T04:30:13.281Z,0
2016-11-21T04:31:23.281Z,0
2016-11-21T04:32:33.728Z,0
2016-11-21T04:33:44.060Z,0
2016-11-21T04:34:54.406Z,0
2016-11-21T04:36:04.399Z,0
2016-11-21T04:37:14.748Z,0
2016-11-21T04:38:25.057Z,0
2016-11-21T04:39:35.425Z,0
2016-11-21T04:40:44.690Z,0
2016-11-21T04:41:54.732Z,0
2016-11-21T04:43:04.778Z,0
2016-11-21T04:44:14.778Z,0
2016-11-21T04:45:24.919Z,0
2016-11-21T04:46:34.652Z,0
2016-11-21T04:47:44.500Z,0
2016-11-21T04:48:54.820Z,0
2016-11-21T04:50:04.869Z,0
2016-11-21T04:51:15.196Z,0
2016-11-21T04:52:24.599Z,0
2016-11-21T04:53:34.610Z,0
2016-11-21T04:54:44.929Z,0
2016-11-21T04:55:54.951Z,0
2016-11-21T04:57:05.273Z,0
2016-11-21T04:58:15.277Z,0
2016-11-21T04:59:25.305Z,0
2016-11-21T05:00:35.330Z,0
2016-11-21T05:01:45.967Z,0
2016-11-21T05:02:55.986Z,0
2016-11-21T05:04:06.050Z,0
2016-11-21T05:05:16.368Z,0
2016-11-21T05:06:26.064Z,0
2016-11-21T05:07:36.519Z,0
2016-11-21T05:08:46.317Z,0
2016-11-21T05:09:56.684Z,0
2016-11-21T05:11:06.757Z,0
2016-11-21T05:12:17.081Z,0
2016-11-21T05:13:26.860Z,0
2016-11-21T05:14:36.919Z,0
2016-11-21T05:15:46.615Z,0
2016-11-21T05:16:56.620Z,0
2016-11-21T05:18:06.013Z,0
2016-11-21T05:19:16.068Z,0
2016-11-21T05:20:26.089Z,0
2016-11-21T05:21:36.431Z,0
2016-11-21T05:22:46.551Z,0
2016-11-21T05:23:56.416Z,0
2016-11-21T05:25:06.510Z,0
2016-11-21T05:26:16.340Z,0
2016-11-21T05:27:26.658Z,0
2016-11-21T05:28:36.679Z,0
2016-11-21T05:29:47.010Z,0
2016-11-21T05:30:57.356Z,0
2016-11-21T05:32:07.379Z,0
2016-11-21T05:33:17.405Z,0
2016-11-21T05:34:27.415Z,0
2016-11-21T05:35:37.778Z,0
2016-11-21T05:36:47.784Z,0
2016-11-21T05:37:57.475Z,0
2016-11-21T05:39:07.589Z,0
2016-11-21T05:40:17.948Z,0
2016-11-21T05:41:27.658Z,0
2016-11-21T05:42:38.009Z,0
2016-11-21T05:43:48.077Z,0
2016-11-21T05:44:58.285Z,0
2016-11-21T05:46:08.039Z,0
2016-11-21T05:47:17.925Z,0
2016-11-21T05:48:28.247Z,0
2016-11-21T05:49:38.006Z,0
2016-11-21T05:50:47.691Z,0
2016-11-21T05:51:58.129Z,0
2016-11-21T05:53:08.610Z,0
2016-11-21T05:54:18.512Z,0
2016-11-21T05:55:28.231Z,0
2016-11-21T05:56:37.985Z,0
2016-11-21T05:57:47.723Z,0
2016-11-21T05:58:57.749Z,0
2016-11-21T06:00:07.468Z,0
2016-11-21T06:01:17.868Z,0
2016-11-21T06:02:27.586Z,0
2016-11-21T06:03:37.687Z,0
2016-11-21T06:04:48.185Z,0
2016-11-21T06:05:58.748Z,0
2016-11-21T06:07:08.778Z,0
2016-11-21T06:08:18.822Z,0
2016-11-21T06:09:29.146Z,0
2016-11-21T06:10:39.465Z,0
2016-11-21T06:11:49.807Z,0
2016-11-21T06:12:59.917Z,0
2016-11-21T06:14:10.335Z,0
2016-11-21T06:15:20.679Z,0
2016-11-21T06:16:31.599Z,0
2016-11-21T06:17:42.022Z,0
2016-11-21T06:18:52.348Z,0
2016-11-21T06:20:02.063Z,0
2016-11-21T06:21:11.772Z,0
2016-11-21T06:22:21.885Z,0
2016-11-21T06:23:31.906Z,0
2016-11-21T06:24:42.322Z,0
2016-11-21T06:25:52.658Z,0
2016-11-21T06:27:02.668Z,0
2016-11-21T06:28:12.816Z,0
2016-11-21T06:29:23.162Z,0
2016-11-21T06:30:32.613Z,0
2016-11-21T06:31:42.622Z,0
2016-11-21T06:32:52.658Z,0
2016-11-21T06:34:02.977Z,0
2016-11-21T06:35:13.310Z,0
2016-11-21T06:36:23.678Z,0
2016-11-21T06:37:33.687Z,0
2016-11-21T06:38:43.707Z,0
2016-11-21T06:39:54.008Z,0
2016-11-21T06:41:04.369Z,0
2016-11-21T06:42:13.878Z,0
2016-11-21T06:43:23.574Z,0
2016-11-21T06:44:33.678Z,0
2016-11-21T06:45:44.008Z,0
2016-11-21T06:46:54.028Z,0
2016-11-21T06:48:04.368Z,0
2016-11-21T06:49:14.379Z,0
2016-11-21T06:50:24.770Z,0
2016-11-21T06:51:35.088Z,5
2016-11-21T06:52:45.263Z,5
2016-11-21T06:53:54.675Z,5
2016-11-21T06:55:05.009Z,5
2016-11-21T06:56:15.336Z,5
2016-11-21T06:57:25.359Z,5
2016-11-21T06:58:35.507Z,5
2016-11-21T06:59:45.824Z,5
2016-11-21T07:00:55.899Z,5
2016-11-21T07:02:05.679Z,5
2016-11-21T07:03:15.864Z,5
2016-11-21T07:04:26.197Z,10
2016-11-21T07:05:36.307Z,10
2016-11-21T07:06:46.319Z,10
2016-11-21T07:07:56.640Z,10
2016-11-21T07:09:06.758Z,10
2016-11-21T07:10:16.777Z,10
2016-11-21T07:11:26.838Z,10
2016-11-21T07:12:36.573Z,10
2016-11-21T07:13:46.909Z,15
2016-11-21T07:14:57.238Z,10
2016-11-21T07:16:07.396Z,15
2016-11-21T07:17:17.716Z,15
2016-11-21T07:18:27.427Z,15
2016-11-21T07:19:37.748Z,15
2016-11-21T07:20:47.780Z,15
2016-11-21T07:21:57.799Z,20
2016-11-21T07:23:08.129Z,20
2016-11-21T07:24:18.148Z,20
2016-11-21T07:25:28.276Z,20
2016-11-21T07:26:38.716Z,20
2016-11-21T07:27:48.743Z,20
2016-11-21T07:28:59.107Z,25
2016-11-21T07:30:09.183Z,25
2016-11-21T07:31:19.208Z,30
2016-11-21T07:32:29.534Z,30
2016-11-21T07:33:39.546Z,30
2016-11-21T07:34:49.669Z,30
2016-11-21T07:35:59.366Z,30
2016-11-21T07:37:09.432Z,35
2016-11-21T07:38:19.750Z,40
2016-11-21T07:39:29.961Z,45
2016-11-21T07:40:39.977Z,50
2016-11-21T07:41:49.697Z,55
2016-11-21T07:42:59.728Z,60
2016-11-21T07:44:09.774Z,65
2016-11-21T07:45:19.880Z,70
2016-11-21T07:46:30.507Z,70
2016-11-21T07:47:40.273Z,75
2016-11-21T07:48:50.617Z,80
2016-11-21T07:50:00.025Z,85
2016-11-21T07:51:10.205Z,90
2016-11-21T07:52:20.275Z,90
2016-11-21T07:53:30.607Z,95
2016-11-21T07:54:40.637Z,100
2016-11-21T07:55:51.056Z,105
2016-11-21T07:57:01.071Z,110
2016-11-21T07:58:10.794Z,110
2016-11-21T07:59:20.805Z,115
2016-11-21T08:00:31.126Z,115
2016-11-21T08:01:40.565Z,120
2016-11-21T08:02:50.589Z,120
2016-11-21T08:04:00.909Z,130
2016-11-21T08:05:11.298Z,130
2016-11-21T08:06:21.465Z,135
2016-11-21T08:07:31.798Z,135
2016-11-21T08:08:42.149Z,135
2016-11-21T08:09:51.586Z,135
2016-11-21T08:11:01.607Z,135
2016-11-21T08:12:12.032Z,130
2016-11-21T08:13:22.200Z,135
2016-11-21T08:14:32.246Z,135
2016-11-21T08:15:41.965Z,150
2016-11-21T08:16:51.696Z,160
2016-11-21T08:18:02.023Z,170
2016-11-21T08:19:12.366Z,175
2016-11-21T08:20:22.488Z,165
2016-11-21T08:21:32.884Z,165
2016-11-21T08:22:43.292Z,160
2016-11-21T08:23:53.436Z,165
2016-11-21T08:25:03.463Z,160
2016-11-21T08:26:12.868Z,150
2016-11-21T08:27:22.903Z,145
2016-11-21T08:28:32.903Z,145
2016-11-21T08:29:42.624Z,145
2016-11-21T08:30:52.696Z,150
2016-11-21T08:32:03.516Z,150
2016-11-21T08:33:13.378Z,155
2016-11-21T08:34:23.367Z,160
2016-11-21T08:35:33.717Z,145
2016-11-21T08:36:43.774Z,135
2016-11-21T08:37:53.731Z,135
2016-11-21T08:39:03.443Z,130
2016-11-21T08:40:13.476Z,125
2016-11-21T08:41:23.474Z,115
2016-11-21T08:42:33.243Z,110
2016-11-21T08:43:42.965Z,100
2016-11-21T08:44:52.774Z,95
2016-11-21T08:46:03.142Z,100
2016-11-21T08:47:13.177Z,110
2016-11-21T08:48:23.715Z,105
2016-11-21T08:49:34.295Z,105
2016-11-21T08:50:44.663Z,110
2016-11-21T08:51:55.026Z,120
2016-11-21T08:53:05.485Z,125
2016-11-21T08:54:15.623Z,135
2016-11-21T08:55:25.686Z,140
2016-11-21T08:56:36.036Z,140
2016-11-21T08:57:46.157Z,140
2016-11-21T08:58:55.864Z,140
2016-11-21T09:00:05.997Z,135
2016-11-21T09:01:16.016Z,125
2016-11-21T09:02:26.048Z,120
2016-11-21T09:03:36.187Z,110
2016-11-21T09:04:46.553Z,110
2016-11-21T09:05:56.265Z,105
2016-11-21T09:07:06.658Z,100
2016-11-21T09:08:16.362Z,95
2016-11-21T09:09:26.335Z,90
2016-11-21T09:10:36.386Z,85
2016-11-21T09:11:46.456Z,80
2016-11-21T09:12:56.845Z,85
2016-11-21T09:14:07.167Z,85
2016-11-21T09:15:17.504Z,85
2016-11-21T09:16:27.908Z,90
2016-11-21T09:17:37.966Z,90
2016-11-21T09:18:48.057Z,90
2016-11-21T09:19:58.796Z,85
2016-11-21T09:21:08.925Z,100
2016-11-21T09:22:19.579Z,110
2016-11-21T09:23:29.938Z,115
2016-11-21T09:24:40.289Z,120
2016-11-21T09:25:50.316Z,120
2016-11-21T09:27:00.655Z,115
2016-11-21T09:28:10.377Z,110
2016-11-21T09:29:20.707Z,105
2016-11-21T09:30:31.096Z,105
2016-11-21T09:31:40.810Z,105
2016-11-21T09:32:51.002Z,105
2016-11-21T09:34:00.748Z,100
2016-11-21T09:35:11.333Z,100
2016-11-21T09:36:21.437Z,95
2016-11-21T09:37:31.574Z,95
2016-11-21T09:38:41.917Z,95
2016-11-21T09:39:51.997Z,100
2016-11-21T09:41:02.186Z,100
2016-11-21T09:42:12.614Z,105
2016-11-21T09:43:22.669Z,105
2016-11-21T09:44:32.708Z,105
2016-11-21T09:45:42.735Z,105
2016-11-21T09:46:52.450Z,100
2016-11-21T09:48:02.856Z,100
2016-11-21T09:49:12.907Z,95
2016-11-21T09:50:23.042Z,95
2016-11-21T09:51:33.058Z,100
2016-11-21T09:52:43.087Z,105
2016-11-21T09:53:53.187Z,105
2016-11-21T09:55:03.528Z,110
2016-11-21T09:56:13.568Z,115
2016-11-21T09:57:23.322Z,120
2016-11-21T09:58:34.266Z,120
2016-11-21T09:59:44.677Z,125
2016-11-21T10:00:54.688Z,130
2016-11-21T10:02:04.766Z,130
2016-11-21T10:03:15.127Z,125
2016-11-21T10:04:25.476Z,115
2016-11-21T10:05:35.499Z,115
2016-11-21T10:06:45.516Z,125
2016-11-21T10:07:55.569Z,135
2016-11-21T10:09:06.027Z,135
2016-11-21T10:10:16.086Z,140
2016-11-21T10:11:26.627Z,155
2016-11-21T10:12:36.658Z,160
2016-11-21T10:13:47.005Z,160
2016-11-21T10:14:57.486Z,150
2016-11-21T10:16:06.888Z,135
2016-11-21T10:17:16.600Z,135
2016-11-21T10:18:26.925Z,135
2016-11-21T10:19:37.295Z,125
2016-11-21T10:20:47.318Z,120
2016-11-21T10:21:57.409Z,120
2016-11-21T10:23:07.737Z,120
2016-11-21T10:24:18.059Z,125
2016-11-21T10:25:28.503Z,135
2016-11-21T10:26:38.523Z,135
2016-11-21T10:27:49.085Z,135
2016-11-21T10:28:59.438Z,135
2016-11-21T10:30:09.588Z,135
2016-11-21T10:31:19.917Z,135
2016-11-21T10:32:30.234Z,135
2016-11-21T10:33:40.577Z,140
2016-11-21T10:34:50.283Z,130
2016-11-21T10:36:00.310Z,115
2016-11-21T10:37:10.648Z,105
2016-11-21T10:38:20.980Z,100
2016-11-21T10:39:30.994Z,100
2016-11-21T10:40:40.824Z,100
2016-11-21T10:41:50.863Z,115
2016-11-21T10:43:01.055Z,120
2016-11-21T10:44:11.068Z,120
2016-11-21T10:45:21.731Z,135
2016-11-21T10:46:31.627Z,155
2016-11-21T10:47:41.970Z,170
2016-11-21T10:48:52.421Z,185
2016-11-21T10:50:02.146Z,180
2016-11-21T10:51:12.156Z,165
2016-11-21T10:52:22.579Z,140
2016-11-21T10:53:33.029Z,150
2016-11-21T10:54:43.358Z,155
2016-11-21T10:55:53.691Z,170
2016-11-21T10:57:04.020Z,175
2016-11-21T10:58:14.186Z,150
2016-11-21T10:59:24.358Z,135
2016-11-21T11:00:34.389Z,125
2016-11-21T11:01:44.839Z,130
2016-11-21T11:02:54.867Z,135
2016-11-21T11:04:05.333Z,140
2016-11-21T11:05:15.368Z,155
2016-11-21T11:06:25.397Z,160
2016-11-21T11:07:35.567Z,165
2016-11-21T11:08:45.929Z,180
2016-11-21T11:09:56.389Z,165
2016-11-21T11:11:06.938Z,180
2016-11-21T11:12:17.257Z,190
2016-11-21T11:13:27.259Z,175
2016-11-21T11:14:37.602Z,140
2016-11-21T11:15:47.679Z,130
2016-11-21T11:16:58.016Z,85
2016-11-21T11:18:08.418Z,80
2016-11-21T11:19:18.762Z,80
2016-11-21T11:20:28.778Z,90
2016-11-21T11:21:39.111Z,80
2016-11-21T11:22:49.138Z,65
2016-11-21T11:23:59.171Z,70
2016-11-21T11:25:09.531Z,70
2016-11-21T11:26:19.550Z,70
2016-11-21T11:27:29.883Z,70
2016-11-21T11:28:39.901Z,75
2016-11-21T11:29:50.426Z,85
2016-11-21T11:31:00.199Z,90
2016-11-21T11:32:10.519Z,90
2016-11-21T11:33:20.860Z,90
2016-11-21T11:34:30.874Z,105
2016-11-21T11:35:41.018Z,120
2016-11-21T11:36:51.381Z,130
2016-11-21T11:38:00.848Z,125
2016-11-21T11:39:10.869Z,120
2016-11-21T11:40:21.199Z,105
2016-11-21T11:41:31.221Z,80
2016-11-21T11:42:41.324Z,70
2016-11-21T11:43:51.644Z,65
2016-11-21T11:45:02.551Z,70
2016-11-21T11:46:12.617Z,75
2016-11-21T11:47:23.056Z,70
2016-11-21T11:48:33.401Z,80
2016-11-21T11:49:43.749Z,80
2016-11-21T11:50:54.165Z,75
2016-11-21T11:52:04.407Z,85
2016-11-21T11:53:14.850Z,100
2016-11-21T11:54:24.865Z,110
2016-11-21T11:55:34.797Z,125
2016-11-21T11:56:45.154Z,125
2016-11-21T11:57:55.478Z,120
2016-11-21T11:59:05.479Z,135
2016-11-21T12:00:15.962Z,140
2016-11-21T12:01:26.294Z,135
2016-11-21T12:02:35.739Z,140
2016-11-21T12:03:45.449Z,140
2016-11-21T12:04:55.907Z,135
2016-11-21T12:06:05.952Z,115
2016-11-21T12:07:16.040Z,105
2016-11-21T12:08:26.103Z,95
2016-11-21T12:09:36.442Z,85
2016-11-21T12:10:46.786Z,85
2016-11-21T12:11:56.858Z,80
2016-11-21T12:13:07.339Z,80
2016-11-21T12:14:17.719Z,75
2016-11-21T12:15:27.739Z,75
2016-11-21T12:16:37.779Z,75
2016-11-21T12:17:48.314Z,80
2016-11-21T12:18:58.647Z,75
2016-11-21T12:20:08.974Z,70
2016-11-21T12:21:19.429Z,70
2016-11-21T12:22:29.886Z,65
2016-11-21T12:23:39.934Z,65
2016-11-21T12:24:50.288Z,65
2016-11-21T12:26:00.621Z,65
2016-11-21T12:27:10.621Z,70
2016-11-21T12:28:20.950Z,70
2016-11-21T12:29:31.304Z,70
2016-11-21T12:30:41.377Z,70
2016-11-21T12:31:51.399Z,75
2016-11-21T12:33:01.109Z,85
2016-11-21T12:34:11.118Z,90
2016-11-21T12:35:21.184Z,95
2016-11-21T12:36:31.271Z,90
2016-11-21T12:37:41.701Z,85
2016-11-21T12:38:51.749Z,80
2016-11-21T12:40:02.110Z,75
2016-11-21T12:41:12.222Z,70
2016-11-21T12:42:22.551Z,70
2016-11-21T12:43:32.880Z,70
2016-11-21T12:44:43.209Z,75
2016-11-21T12:45:53.268Z,80
2016-11-21T12:47:03.326Z,85
2016-11-21T12:48:13.652Z,90
2016-11-21T12:49:23.689Z,85
2016-11-21T12:50:33.691Z,90
2016-11-21T12:51:43.709Z,95
2016-11-21T12:52:53.727Z,95
2016-11-21T12:54:03.439Z,95
2016-11-21T12:55:13.780Z,95
2016-11-21T12:56:23.491Z,100
2016-11-21T12:57:33.995Z,95
2016-11-21T12:58:44.067Z,90
2016-11-21T12:59:54.178Z,85
2016-11-21T13:01:03.960Z,80
2016-11-21T13:02:14.658Z,80
2016-11-21T13:03:24.679Z,75
2016-11-21T13:04:35.228Z,80
2016-11-21T13:05:45.263Z,85
2016-11-21T13:06:55.634Z,80
2016-11-21T13:08:05.959Z,70
2016-11-21T13:09:15.681Z,70
2016-11-21T13:10:25.720Z,70
2016-11-21T13:11:36.083Z,75
2016-11-21T13:12:46.440Z,80
2016-11-21T13:13:56.802Z,80
2016-11-21T13:15:06.693Z,80
2016-11-21T13:16:16.745Z,80
2016-11-21T13:17:27.178Z,75
2016-11-21T13:18:37.530Z,70
2016-11-21T13:19:47.863Z,70
2016-11-21T13:20:58.231Z,70
2016-11-21T13:22:08.578Z,70
2016-11-21T13:23:18.682Z,70
2016-11-21T13:24:28.718Z,70
2016-11-21T13:25:38.430Z,70
2016-11-21T13:26:48.772Z,65
2016-11-21T13:27:59.162Z,70
2016-11-21T13:29:09.217Z,75
2016-11-21T13:30:19.251Z,80
2016-11-21T13:31:29.601Z,75
2016-11-21T13:32:39.961Z,75
2016-11-21T13:33:50.392Z,75
2016-11-21T13:35:00.411Z,75
2016-11-21T13:36:10.161Z,70
2016-11-21T13:37:20.705Z,70
2016-11-21T13:38:30.464Z,70
2016-11-21T13:39:40.882Z,65
2016-11-21T13:40:50.932Z,70
2016-11-21T13:42:01.019Z,70
2016-11-21T13:43:11.363Z,70
2016-11-21T13:44:21.841Z,70
2016-11-21T13:45:32.222Z,70
2016-11-21T13:46:42.658Z,70
2016-11-21T13:47:52.902Z,70
2016-11-21T13:49:02.666Z,70
2016-11-21T13:50:13.397Z,70
2016-11-21T13:51:23.767Z,65
2016-11-21T13:52:33.788Z,65
2016-11-21T13:53:43.511Z,65
2016-11-21T13:54:53.688Z,65
2016-11-21T13:56:03.723Z,65
2016-11-21T13:57:14.031Z,60
2016-11-21T13:58:24.492Z,55
2016-11-21T13:59:34.820Z,55
2016-11-21T14:00:44.851Z,50
2016-11-21T14:01:55.190Z,50
2016-11-21T14:03:05.362Z,50
2016-11-21T14:04:15.121Z,45
2016-11-21T14:05:24.942Z,50
2016-11-21T14:06:35.003Z,50
2016-11-21T14:07:45.369Z,50
2016-11-21T14:08:55.731Z,50
2016-11-21T14:10:06.112Z,50
2016-11-21T14:11:16.128Z,50
2016-11-21T14:12:25.842Z,50
2016-11-21T14:13:35.861Z,50
2016-11-21T14:14:46.211Z,50
2016-11-21T14:15:56.351Z,50
2016-11-21T14:17:06.691Z,55
2016-11-21T14:18:17.026Z,55
2016-11-21T14:19:27.381Z,55
2016-11-21T14:20:37.761Z,55
2016-11-21T14:21:47.781Z,55
2016-11-21T14:22:58.080Z,50
2016-11-21T14:24:08.342Z,50
2016-11-21T14:25:18.744Z,50
2016-11-21T14:26:29.095Z,50
2016-11-21T14:27:39.502Z,50
2016-11-21T14:28:49.541Z,45
2016-11-21T14:29:59.557Z,45
2016-11-21T14:31:09.914Z,45
2016-11-21T14:32:20.289Z,45
2016-11-21T14:33:30.483Z,45
2016-11-21T14:34:40.514Z,45
2016-11-21T14:35:50.901Z,45
2016-11-21T14:37:00.985Z,45
2016-11-21T14:38:11.342Z,45
2016-11-21T14:39:21.733Z,45
2016-11-21T14:40:32.081Z,45
2016-11-21T14:41:42.420Z,45
2016-11-21T14:42:52.189Z,40
2016-11-21T14:44:02.232Z,40
2016-11-21T14:45:12.558Z,40
2016-11-21T14:46:22.919Z,35
2016-11-21T14:47:33.450Z,35
2016-11-21T14:48:43.461Z,30
2016-11-21T14:49:53.830Z,30
2016-11-21T14:51:03.920Z,30
2016-11-21T14:52:14.263Z,30
2016-11-21T14:53:24.620Z,30
2016-11-21T14:54:35.089Z,25
2016-11-21T14:55:45.436Z,25
2016-11-21T14:56:55.982Z,25
2016-11-21T14:58:06.088Z,25
2016-11-21T14:59:16.153Z,25
2016-11-21T15:00:26.502Z,20
2016-11-21T15:01:36.843Z,20
2016-11-21T15:02:46.880Z,20
2016-11-21T15:03:56.906Z,15
2016-11-21T15:05:06.924Z,15
2016-11-21T15:06:16.934Z,10
2016-11-21T15:07:27.259Z,10
2016-11-21T15:08:37.291Z,5
2016-11-21T15:09:47.652Z,5
2016-11-21T15:10:57.382Z,5
2016-11-21T15:12:07.421Z,5
2016-11-21T15:13:17.771Z,5
2016-11-21T15:14:27.821Z,0
2016-11-21T15:15:37.910Z,0
2016-11-21T15:16:48.038Z,0
2016-11-21T15:17:58.493Z,0
2016-11-21T15:19:08.837Z,0
2016-11-21T15:20:18.966Z,0
2016-11-21T15:21:29.347Z,0
2016-11-21T15:22:39.367Z,0
2016-11-21T15:23:49.381Z,0
2016-11-21T15:24:59.752Z,0
2016-11-21T15:26:10.231Z,0
2016-11-21T15:27:20.541Z,0
2016-11-21T15:28:31.036Z,0
2016-11-21T15:29:41.373Z,0
2016-11-21T15:30:51.744Z,0
2016-11-21T15:32:02.095Z,0
2016-11-21T15:33:12.174Z,0
2016-11-21T15:34:21.934Z,0
2016-11-21T15:35:32.342Z,0
2016-11-21T15:36:42.693Z,0
2016-11-21T15:37:53.031Z,0
2016-11-21T15:39:03.604Z,0
2016-11-21T15:40:13.949Z,0
2016-11-21T15:41:24.303Z,0
2016-11-21T15:42:34.334Z,0
2016-11-21T15:43:44.392Z,0
2016-11-21T15:44:54.416Z,0
2016-11-21T15:46:04.762Z,0
2016-11-21T15:47:14.800Z,0
2016-11-21T15:48:25.163Z,0
2016-11-21T15:49:35.539Z,0
2016-11-21T15:50:45.881Z,0
2016-11-21T15:51:55.960Z,0
2016-11-21T15:53:06.410Z,0
2016-11-21T15:54:16.432Z,0
2016-11-21T15:55:26.801Z,0
2016-11-21T15:56:36.910Z,0
2016-11-21T15:57:47.270Z,0
2016-11-21T15:58:57.620Z,0
2016-11-21T16:00:07.342Z,0
2016-11-21T16:01:18.002Z,0
2016-11-21T16:02:28.363Z,0
2016-11-21T16:03:38.426Z,0
2016-11-21T16:04:48.878Z,0
2016-11-21T16:05:59.181Z,0
2016-11-21T16:07:09.221Z,0
2016-11-21T16:08:19.293Z,0
2016-11-21T16:09:29.650Z,0
2016-11-21T16:10:39.986Z,0
2016-11-21T16:11:50.023Z,0
2016-11-21T16:13:00.404Z,0
2016-11-21T16:14:10.500Z,0
2016-11-21T16:15:20.522Z,0
2016-11-21T16:16:30.866Z,0
2016-11-21T16:17:41.294Z,0
2016-11-21T16:18:51.650Z,0
2016-11-21T16:20:02.002Z,0
2016-11-21T16:21:12.502Z,0
2016-11-21T16:22:22.843Z,0
2016-11-21T16:23:33.191Z,0
2016-11-21T16:24:43.667Z,0
2016-11-21T16:25:54.015Z,0
2016-11-21T16:27:04.410Z,0
2016-11-21T16:28:14.789Z,0
2016-11-21T16:29:25.143Z,0
2016-11-21T16:30:35.503Z,0
2016-11-21T16:31:45.837Z,0
2016-11-21T16:32:56.500Z,0
2016-11-21T16:34:06.545Z,0
2016-11-21T16:35:16.721Z,0
2016-11-21T16:36:27.081Z,0
2016-11-21T16:37:37.097Z,0
2016-11-21T16:38:47.172Z,0
2016-11-21T16:39:57.629Z,0
2016-11-21T16:41:07.974Z,0
2016-11-21T16:42:18.384Z,0
2016-11-21T16:43:28.969Z,0
2016-11-21T16:44:38.715Z,0
2016-11-21T16:45:49.065Z,0
2016-11-21T16:46:59.100Z,0
2016-11-21T16:48:09.568Z,0
2016-11-21T16:49:19.915Z,0
2016-11-21T16:50:30.397Z,0
2016-11-21T16:51:40.481Z,0